createdAt,value
2019-01-02T00:00:32.686Z,1009.20
2019-01-02T00:01:31.404Z,1009.27
2019-01-02T00:02:31.403Z,1009.30
2019-01-02T00:03:31.400Z,1009.31
2019-01-02T00:04:31.374Z,1009.15
2019-01-02T00:05:31.361Z,1009.21
2019-01-02T00:06:31.351Z,1009.33
2019-01-02T00:07:31.345Z,1009.23
2019-01-02T00:08:31.337Z,1009.25
2019-01-02T00:09:31.341Z,1009.24
2019-01-02T00:10:31.324Z,1009.32
2019-01-02T00:11:31.303Z,1009.28
2019-01-02T00:12:31.290Z,1009.31
2019-01-02T00:13:31.282Z,1009.27
2019-01-02T00:14:31.275Z,1009.30
2019-01-02T00:15:31.283Z,1009.28
2019-01-02T00:16:31.246Z,1009.24
2019-01-02T00:17:31.278Z,1009.36
2019-01-02T00:18:31.221Z,1009.42
2019-01-02T00:19:31.216Z,1009.38
2019-01-02T00:20:31.205Z,1009.37
2019-01-02T00:21:31.194Z,1009.34
2019-01-02T00:22:31.184Z,1009.41
2019-01-02T00:23:31.181Z,1009.44
2019-01-02T00:24:31.163Z,1009.42
2019-01-02T00:25:31.151Z,1009.47
2019-01-02T00:26:31.136Z,1009.49
2019-01-02T00:27:31.130Z,1009.38
2019-01-02T00:28:31.124Z,1009.45
2019-01-02T00:29:31.113Z,1009.43
2019-01-02T00:30:31.099Z,1009.44
2019-01-02T00:31:31.094Z,1009.45
2019-01-02T00:32:31.076Z,1009.47
2019-01-02T00:33:31.070Z,1009.55
2019-01-02T00:34:31.051Z,1009.36
2019-01-02T00:35:31.039Z,1009.45
2019-01-02T00:36:31.030Z,1009.45
2019-01-02T00:37:31.017Z,1009.49
2019-01-02T00:38:31.019Z,1009.56
2019-01-02T00:39:31.011Z,1009.53
2019-01-02T00:40:30.992Z,1009.53
2019-01-02T00:41:30.979Z,1009.55
2019-01-02T00:42:30.975Z,1009.55
2019-01-02T00:43:30.964Z,1009.63
2019-01-02T00:44:30.941Z,1009.65
2019-01-02T00:45:30.940Z,1009.62
2019-01-02T00:46:30.925Z,1009.73
2019-01-02T00:47:30.918Z,1009.75
2019-01-02T00:48:30.904Z,1009.70
2019-01-02T00:49:30.901Z,1009.70
2019-01-02T00:50:30.893Z,1009.59
2019-01-02T00:51:30.867Z,1009.72
2019-01-02T00:52:30.855Z,1009.69
2019-01-02T00:53:30.853Z,1009.67
2019-01-02T00:54:30.835Z,1009.76
2019-01-02T00:55:30.830Z,1009.83
2019-01-02T00:56:30.827Z,1009.89
2019-01-02T00:57:30.804Z,1009.78
2019-01-02T00:58:30.805Z,1009.71
2019-01-02T00:59:30.790Z,1009.71
2019-01-02T01:00:30.780Z,1009.74
2019-01-02T01:01:30.767Z,1009.78
2019-01-02T01:02:30.760Z,1009.76
2019-01-02T01:03:30.743Z,1009.79
2019-01-02T01:04:30.736Z,1009.80
2019-01-02T01:05:30.721Z,1009.83
2019-01-02T01:06:30.709Z,1009.82
2019-01-02T01:07:30.705Z,1009.78
2019-01-02T01:08:30.689Z,1009.81
2019-01-02T01:09:30.671Z,1009.87
2019-01-02T01:10:30.669Z,1009.89
2019-01-02T01:11:30.656Z,1009.84
2019-01-02T01:12:30.653Z,1009.80
2019-01-02T01:13:30.631Z,1009.90
2019-01-02T01:14:30.624Z,1009.86
2019-01-02T01:15:30.616Z,1009.88
2019-01-02T01:16:30.610Z,1009.82
2019-01-02T01:17:30.591Z,1009.83
2019-01-02T01:18:30.583Z,1009.85
2019-01-02T01:19:30.565Z,1009.85
2019-01-02T01:20:30.560Z,1009.90
2019-01-02T01:21:30.556Z,1009.90
2019-01-02T01:22:30.538Z,1009.88
2019-01-02T01:23:30.561Z,1009.95
2019-01-02T01:24:30.514Z,1009.85
2019-01-02T01:25:30.499Z,1009.89
2019-01-02T01:26:30.494Z,1009.93
2019-01-02T01:27:30.484Z,1009.94
2019-01-02T01:28:30.473Z,1009.99
2019-01-02T01:29:30.481Z,1010.01
2019-01-02T01:30:30.452Z,1010.06
2019-01-02T01:31:30.447Z,1009.95
2019-01-02T01:32:30.424Z,1009.95
2019-01-02T01:33:30.412Z,1010.00
2019-01-02T01:34:30.417Z,1009.99
2019-01-02T01:35:30.405Z,1010.01
2019-01-02T01:36:30.381Z,1009.98
2019-01-02T01:37:30.377Z,1010.05
2019-01-02T01:38:30.363Z,1010.02
2019-01-02T01:39:30.359Z,1010.07
2019-01-02T01:40:30.379Z,1010.03
2019-01-02T01:41:30.329Z,1010.08
2019-01-02T01:42:30.319Z,1010.08
2019-01-02T01:43:30.312Z,1010.03
2019-01-02T01:44:30.302Z,1010.06
2019-01-02T01:45:30.288Z,1010.05
2019-01-02T01:46:30.319Z,1010.10
2019-01-02T01:47:30.267Z,1010.05
2019-01-02T01:48:30.258Z,1010.09
2019-01-02T01:49:30.252Z,1010.01
2019-01-02T01:50:30.230Z,1010.08
2019-01-02T01:51:30.228Z,1010.20
2019-01-02T01:52:30.223Z,1010.11
2019-01-02T01:53:30.238Z,1010.06
2019-01-02T01:54:30.190Z,1009.99
2019-01-02T01:55:30.184Z,1010.07
2019-01-02T01:56:30.170Z,1010.03
2019-01-02T01:57:30.169Z,1010.03
2019-01-02T01:58:30.150Z,1010.06
2019-01-02T01:59:30.149Z,1010.09
2019-01-02T02:00:30.129Z,1010.14
2019-01-02T02:01:30.121Z,1010.04
2019-01-02T02:02:30.133Z,1010.04
2019-01-02T02:03:30.091Z,1010.01
2019-01-02T02:04:30.079Z,1010.12
2019-01-02T02:05:30.070Z,1010.02
2019-01-02T02:06:30.061Z,1010.14
2019-01-02T02:07:30.047Z,1010.12
2019-01-02T02:08:30.051Z,1010.10
2019-01-02T02:09:30.026Z,1010.07
2019-01-02T02:10:30.016Z,1010.10
2019-01-02T02:11:30.009Z,1010.12
2019-01-02T02:12:30.001Z,1010.11
2019-01-02T02:13:30.034Z,1010.09
2019-01-02T02:14:29.974Z,1010.11
2019-01-02T02:15:29.965Z,1010.12
2019-01-02T02:16:29.956Z,1010.18
2019-01-02T02:17:29.946Z,1010.20
2019-01-02T02:18:29.977Z,1010.15
2019-01-02T02:19:29.923Z,1010.07
2019-01-02T02:20:29.908Z,1010.10
2019-01-02T02:21:29.908Z,1010.12
2019-01-02T02:22:29.894Z,1010.19
2019-01-02T02:23:29.885Z,1010.22
2019-01-02T02:24:29.876Z,1010.19
2019-01-02T02:25:29.859Z,1010.17
2019-01-02T02:26:29.844Z,1010.15
2019-01-02T02:27:29.832Z,1010.13
2019-01-02T02:28:29.823Z,1010.09
2019-01-02T02:29:29.822Z,1010.21
2019-01-02T02:30:29.813Z,1010.21
2019-01-02T02:31:29.799Z,1010.32
2019-01-02T02:32:29.785Z,1010.38
2019-01-02T02:33:29.769Z,1010.16
2019-01-02T02:34:29.769Z,1010.17
2019-01-02T02:35:29.753Z,1010.31
2019-01-02T02:36:29.741Z,1010.29
2019-01-02T02:37:29.724Z,1010.33
2019-01-02T02:38:29.718Z,1010.34
2019-01-02T02:39:29.722Z,1010.38
2019-01-02T02:40:29.696Z,1010.37
2019-01-02T02:41:29.687Z,1010.36
2019-01-02T02:42:29.673Z,1010.45
2019-01-02T02:43:29.680Z,1010.38
2019-01-02T02:44:29.671Z,1010.39
2019-01-02T02:45:29.645Z,1010.35
2019-01-02T02:46:29.628Z,1010.43
2019-01-02T02:47:29.616Z,1010.50
2019-01-02T02:48:29.605Z,1010.44
2019-01-02T02:49:29.597Z,1010.38
2019-01-02T02:50:29.657Z,1010.40
2019-01-02T02:51:29.576Z,1010.39
2019-01-02T02:52:29.579Z,1010.42
2019-01-02T02:53:29.558Z,1010.44
2019-01-02T02:54:29.542Z,1010.36
2019-01-02T02:55:29.558Z,1010.41
2019-01-02T02:56:29.530Z,1010.41
2019-01-02T02:57:29.515Z,1010.32
2019-01-02T02:58:29.503Z,1010.35
2019-01-02T02:59:29.488Z,1010.43
2019-01-02T03:00:29.482Z,1010.39
2019-01-02T03:01:29.484Z,1010.37
2019-01-02T03:02:29.461Z,1010.34
2019-01-02T03:03:37.307Z,1010.39
2019-01-02T03:04:29.443Z,1010.41
2019-01-02T03:05:29.429Z,1010.51
2019-01-02T03:06:29.429Z,1010.42
2019-01-02T03:07:29.405Z,1010.46
2019-01-02T03:08:29.397Z,1010.46
2019-01-02T03:09:29.386Z,1010.46
2019-01-02T03:10:29.369Z,1010.52
2019-01-02T03:11:29.372Z,1010.45
2019-01-02T03:12:29.353Z,1010.51
2019-01-02T03:13:29.377Z,1010.50
2019-01-02T03:14:29.327Z,1010.50
2019-01-02T03:15:29.318Z,1010.43
2019-01-02T03:16:29.312Z,1010.48
2019-01-02T03:17:29.299Z,1010.56
2019-01-02T03:18:29.295Z,1010.57
2019-01-02T03:19:29.288Z,1010.59
2019-01-02T03:20:29.263Z,1010.56
2019-01-02T03:21:29.252Z,1010.55
2019-01-02T03:22:29.245Z,1010.62
2019-01-02T03:23:29.235Z,1010.61
2019-01-02T03:24:29.239Z,1010.63
2019-01-02T03:25:29.208Z,1010.71
2019-01-02T03:26:29.207Z,1010.69
2019-01-02T03:27:29.186Z,1010.72
2019-01-02T03:28:29.180Z,1010.73
2019-01-02T03:29:29.201Z,1010.80
2019-01-02T03:30:29.155Z,1010.74
2019-01-02T03:31:29.145Z,1010.73
2019-01-02T03:32:29.134Z,1010.79
2019-01-02T03:33:29.129Z,1010.74
2019-01-02T03:34:29.117Z,1010.74
2019-01-02T03:35:29.126Z,1010.80
2019-01-02T03:36:29.090Z,1010.79
2019-01-02T03:37:29.083Z,1010.80
2019-01-02T03:38:29.068Z,1010.85
2019-01-02T03:39:29.056Z,1010.88
2019-01-02T03:40:29.051Z,1010.84
2019-01-02T03:41:29.061Z,1010.86
2019-01-02T03:42:29.027Z,1010.76
2019-01-02T03:43:29.020Z,1010.87
2019-01-02T03:44:29.003Z,1010.93
2019-01-02T03:45:28.999Z,1010.95
2019-01-02T03:46:29.000Z,1010.98
2019-01-02T03:47:28.973Z,1010.92
2019-01-02T03:48:28.966Z,1011.02
2019-01-02T03:49:28.951Z,1010.99
2019-01-02T03:50:28.942Z,1011.01
2019-01-02T03:51:28.981Z,1011.03
2019-01-02T03:52:28.931Z,1011.07
2019-01-02T03:53:28.912Z,1011.01
2019-01-02T03:54:28.901Z,1011.09
2019-01-02T03:55:28.890Z,1010.99
2019-01-02T03:56:28.876Z,1011.02
2019-01-02T03:57:28.905Z,1011.02
2019-01-02T03:58:28.853Z,1010.89
2019-01-02T03:59:28.846Z,1010.98
2019-01-02T04:00:28.834Z,1010.98
2019-01-02T04:01:28.826Z,1010.99
2019-01-02T04:02:28.835Z,1010.99
2019-01-02T04:03:28.801Z,1010.96
2019-01-02T04:04:28.790Z,1010.96
2019-01-02T04:05:28.783Z,1011.01
2019-01-02T04:06:28.775Z,1011.01
2019-01-02T04:07:28.761Z,1011.01
2019-01-02T04:08:28.791Z,1010.97
2019-01-02T04:09:28.740Z,1011.05
2019-01-02T04:10:28.729Z,1011.12
2019-01-02T04:11:28.719Z,1011.10
2019-01-02T04:12:28.703Z,1011.10
2019-01-02T04:13:28.703Z,1011.06
2019-01-02T04:14:28.710Z,1011.10
2019-01-02T04:15:28.676Z,1011.06
2019-01-02T04:16:28.661Z,1011.05
2019-01-02T04:17:28.654Z,1011.13
2019-01-02T04:18:28.644Z,1011.02
2019-01-02T04:19:28.627Z,1011.22
2019-01-02T04:20:28.625Z,1011.15
2019-01-02T04:21:28.611Z,1011.11
2019-01-02T04:22:28.600Z,1011.14
2019-01-02T04:23:28.591Z,1011.18
2019-01-02T04:24:28.576Z,1011.20
2019-01-02T04:25:28.579Z,1011.28
2019-01-02T04:26:28.598Z,1011.19
2019-01-02T04:27:28.543Z,1011.23
2019-01-02T04:28:28.539Z,1011.19
2019-01-02T04:29:28.530Z,1011.23
2019-01-02T04:30:28.518Z,1011.18
2019-01-02T04:31:28.502Z,1011.25
2019-01-02T04:32:28.509Z,1011.27
2019-01-02T04:33:28.496Z,1011.33
2019-01-02T04:34:28.470Z,1011.31
2019-01-02T04:35:28.459Z,1011.32
2019-01-02T04:36:28.456Z,1011.34
2019-01-02T04:37:28.455Z,1011.39
2019-01-02T04:38:28.428Z,1011.40
2019-01-02T04:39:28.418Z,1011.32
2019-01-02T04:40:28.414Z,1011.37
2019-01-02T04:41:28.410Z,1011.41
2019-01-02T04:42:28.387Z,1011.48
2019-01-02T04:43:28.387Z,1011.37
2019-01-02T04:44:28.364Z,1011.47
2019-01-02T04:45:28.353Z,1011.48
2019-01-02T04:46:28.354Z,1011.55
2019-01-02T04:47:28.341Z,1011.52
2019-01-02T04:48:28.321Z,1011.51
2019-01-02T04:49:28.315Z,1011.55
2019-01-02T04:50:28.300Z,1011.55
2019-01-02T04:51:28.304Z,1011.68
2019-01-02T04:52:28.288Z,1011.57
2019-01-02T04:53:28.274Z,1011.60
2019-01-02T04:54:28.256Z,1011.62
2019-01-02T04:55:28.246Z,1011.66
2019-01-02T04:56:28.283Z,1011.60
2019-01-02T04:57:28.230Z,1011.75
2019-01-02T04:58:28.221Z,1011.59
2019-01-02T04:59:28.210Z,1011.59
2019-01-02T05:00:28.230Z,1011.62
2019-01-02T05:01:28.184Z,1011.75
2019-01-02T05:02:28.182Z,1011.69
2019-01-02T05:03:28.176Z,1011.69
2019-01-02T05:04:28.154Z,1011.70
2019-01-02T05:05:28.141Z,1011.66
2019-01-02T05:06:28.135Z,1011.72
2019-01-02T05:07:28.128Z,1011.72
2019-01-02T05:08:28.113Z,1011.71
2019-01-02T05:09:28.125Z,1011.77
2019-01-02T05:10:28.092Z,1011.85
2019-01-02T05:11:28.081Z,1011.78
2019-01-02T05:12:28.067Z,1011.88
2019-01-02T05:13:28.062Z,1011.90
2019-01-02T05:14:28.042Z,1011.83
2019-01-02T05:15:28.041Z,1011.93
2019-01-02T05:16:28.021Z,1011.90
2019-01-02T05:17:28.013Z,1011.87
2019-01-02T05:18:28.023Z,1011.94
2019-01-02T05:19:27.988Z,1011.96
2019-01-02T05:20:27.978Z,1011.98
2019-01-02T05:21:27.966Z,1011.98
2019-01-02T05:22:27.960Z,1011.93
2019-01-02T05:23:27.943Z,1012.00
2019-01-02T05:24:27.945Z,1012.01
2019-01-02T05:25:27.928Z,1012.03
2019-01-02T05:26:27.913Z,1012.04
2019-01-02T05:27:27.903Z,1011.98
2019-01-02T05:28:27.908Z,1012.07
2019-01-02T05:29:27.893Z,1012.07
2019-01-02T05:30:27.869Z,1012.06
2019-01-02T05:31:27.876Z,1012.11
2019-01-02T05:32:27.848Z,1012.13
2019-01-02T05:33:27.843Z,1012.07
2019-01-02T05:34:27.843Z,1012.14
2019-01-02T05:35:27.815Z,1012.16
2019-01-02T05:36:27.804Z,1012.15
2019-01-02T05:37:27.812Z,1012.12
2019-01-02T05:38:27.783Z,1012.16
2019-01-02T05:39:27.777Z,1012.25
2019-01-02T05:40:27.765Z,1012.15
2019-01-02T05:41:27.750Z,1012.25
2019-01-02T05:42:27.743Z,1012.26
2019-01-02T05:43:27.742Z,1012.32
2019-01-02T05:44:27.719Z,1012.34
2019-01-02T05:45:27.707Z,1012.38
2019-01-02T05:46:27.702Z,1012.38
2019-01-02T05:47:27.690Z,1012.45
2019-01-02T05:48:27.720Z,1012.40
2019-01-02T05:49:27.665Z,1012.37
2019-01-02T05:50:27.657Z,1012.45
2019-01-02T05:51:27.647Z,1012.44
2019-01-02T05:52:27.635Z,1012.46
2019-01-02T05:53:27.630Z,1012.51
2019-01-02T05:54:27.626Z,1012.52
2019-01-02T05:55:27.598Z,1012.51
2019-01-02T05:56:27.593Z,1012.58
2019-01-02T05:57:27.584Z,1012.56
2019-01-02T05:58:27.569Z,1012.55
2019-01-02T05:59:27.576Z,1012.63
2019-01-02T06:00:27.555Z,1012.60
2019-01-02T06:01:27.542Z,1012.62
2019-01-02T06:02:27.528Z,1012.60
2019-01-02T06:03:27.518Z,1012.59
2019-01-02T06:04:27.541Z,1012.64
2019-01-02T06:05:27.500Z,1012.68
2019-01-02T06:06:27.485Z,1012.65
2019-01-02T06:07:27.476Z,1012.66
2019-01-02T06:08:27.461Z,1012.72
2019-01-02T06:09:27.447Z,1012.76
2019-01-02T06:10:27.550Z,1012.78
2019-01-02T06:11:27.432Z,1012.76
2019-01-02T06:12:27.416Z,1012.71
2019-01-02T06:13:27.404Z,1012.79
2019-01-02T06:14:27.400Z,1012.87
2019-01-02T06:15:27.389Z,1012.83
2019-01-02T06:16:27.390Z,1012.83
2019-01-02T06:17:27.362Z,1012.83
2019-01-02T06:18:27.355Z,1012.92
2019-01-02T06:19:27.345Z,1012.88
2019-01-02T06:20:27.358Z,1012.92
2019-01-02T06:21:27.324Z,1012.89
2019-01-02T06:22:27.316Z,1012.93
2019-01-02T06:23:27.302Z,1012.94
2019-01-02T06:24:27.286Z,1012.98
2019-01-02T06:25:27.277Z,1012.91
2019-01-02T06:26:27.279Z,1013.01
2019-01-02T06:27:27.297Z,1012.94
2019-01-02T06:28:27.249Z,1012.94
2019-01-02T06:29:27.234Z,1012.96
2019-01-02T06:30:27.223Z,1012.94
2019-01-02T06:31:27.214Z,1013.07
2019-01-02T06:32:27.206Z,1013.12
2019-01-02T06:33:27.204Z,1013.05
2019-01-02T06:34:27.183Z,1013.07
2019-01-02T06:35:27.175Z,1013.09
2019-01-02T06:36:27.241Z,1013.11
2019-01-02T06:37:27.207Z,1013.05
2019-01-02T06:38:27.141Z,1013.22
2019-01-02T06:39:27.128Z,1013.15
2019-01-02T06:40:27.123Z,1013.18
2019-01-02T06:41:27.106Z,1013.24
2019-01-02T06:42:27.098Z,1013.23
2019-01-02T06:43:27.098Z,1013.26
2019-01-02T06:44:27.087Z,1013.33
2019-01-02T06:45:27.063Z,1013.36
2019-01-02T06:46:27.060Z,1013.39
2019-01-02T06:47:27.041Z,1013.42
2019-01-02T06:48:27.064Z,1013.43
2019-01-02T06:49:27.024Z,1013.52
2019-01-02T06:50:27.017Z,1013.52
2019-01-02T06:51:27.007Z,1013.57
2019-01-02T06:52:26.993Z,1013.46
2019-01-02T06:53:26.983Z,1013.54
2019-01-02T06:54:27.006Z,1013.61
2019-01-02T06:55:26.974Z,1013.54
2019-01-02T06:56:26.950Z,1013.62
2019-01-02T06:57:26.942Z,1013.64
2019-01-02T06:58:26.923Z,1013.67
2019-01-02T06:59:26.916Z,1013.64
2019-01-02T07:00:26.946Z,1013.74
2019-01-02T07:01:26.891Z,1013.65
2019-01-02T07:02:26.888Z,1013.76
2019-01-02T07:03:26.878Z,1013.81
2019-01-02T07:04:26.872Z,1013.84
2019-01-02T07:05:26.868Z,1013.88
2019-01-02T07:06:26.869Z,1013.87
2019-01-02T07:07:31.224Z,1013.86
2019-01-02T07:08:26.822Z,1013.88
2019-01-02T07:09:26.812Z,1013.90
2019-01-02T07:10:26.803Z,1013.89
2019-01-02T07:11:26.785Z,1013.98
2019-01-02T07:12:26.783Z,1013.90
2019-01-02T07:13:26.764Z,1013.95
2019-01-02T07:14:26.792Z,1013.95
2019-01-02T07:15:26.745Z,1014.00
2019-01-02T07:16:26.732Z,1014.02
2019-01-02T07:17:26.722Z,1014.08
2019-01-02T07:18:26.718Z,1014.09
2019-01-02T07:19:26.702Z,1014.07
2019-01-02T07:20:26.703Z,1014.13
2019-01-02T07:21:26.678Z,1014.16
2019-01-02T07:22:26.709Z,1014.16
2019-01-02T07:23:26.658Z,1014.27
2019-01-02T07:24:26.649Z,1014.23
2019-01-02T07:25:26.641Z,1014.20
2019-01-02T07:26:26.631Z,1014.26
2019-01-02T07:27:26.622Z,1014.31
2019-01-02T07:28:26.651Z,1014.32
2019-01-02T07:29:26.601Z,1014.39
2019-01-02T07:30:26.582Z,1014.38
2019-01-02T07:31:26.576Z,1014.38
2019-01-02T07:32:26.567Z,1014.42
2019-01-02T07:33:26.552Z,1014.43
2019-01-02T07:34:26.552Z,1014.39
2019-01-02T07:35:26.541Z,1014.41
2019-01-02T07:36:26.524Z,1014.50
2019-01-02T07:37:27.042Z,1014.49
2019-01-02T07:38:26.502Z,1014.51
2019-01-02T07:39:26.487Z,1014.58
2019-01-02T07:40:26.493Z,1014.53
2019-01-02T07:41:26.470Z,1014.54
2019-01-02T07:42:26.454Z,1014.58
2019-01-02T07:43:26.448Z,1014.53
2019-01-02T07:44:29.323Z,1014.59
2019-01-02T07:45:26.423Z,1014.47
2019-01-02T07:46:26.427Z,1014.66
2019-01-02T07:47:26.408Z,1014.55
2019-01-02T07:48:26.393Z,1014.76
2019-01-02T07:49:26.385Z,1014.69
2019-01-02T07:50:26.372Z,1014.75
2019-01-02T07:51:26.399Z,1014.70
2019-01-02T07:52:26.348Z,1014.93
2019-01-02T07:53:26.339Z,1014.84
2019-01-02T07:54:26.327Z,1014.85
2019-01-02T07:55:26.316Z,1014.93
2019-01-02T07:56:26.312Z,1015.01
2019-01-02T07:57:26.304Z,1014.95
2019-01-02T07:58:26.290Z,1014.99
2019-01-02T07:59:26.279Z,1014.99
2019-01-02T08:00:26.270Z,1015.11
2019-01-02T08:01:26.253Z,1015.20
2019-01-02T08:02:26.262Z,1015.10
2019-01-02T08:03:26.237Z,1015.14
2019-01-02T08:04:26.228Z,1015.22
2019-01-02T08:05:26.211Z,1015.26
2019-01-02T08:06:26.201Z,1015.26
2019-01-02T08:07:26.190Z,1015.17
2019-01-02T08:08:26.190Z,1015.22
2019-01-02T08:09:26.176Z,1015.20
2019-01-02T08:10:27.410Z,1015.28
2019-01-02T08:11:26.153Z,1015.28
2019-01-02T08:12:26.135Z,1015.37
2019-01-02T08:13:26.129Z,1015.38
2019-01-02T08:14:26.127Z,1015.39
2019-01-02T08:15:26.109Z,1015.37
2019-01-02T08:16:26.099Z,1015.40
2019-01-02T08:17:26.091Z,1015.43
2019-01-02T08:18:26.072Z,1015.45
2019-01-02T08:19:26.079Z,1015.55
2019-01-02T08:20:26.091Z,1015.41
2019-01-02T08:21:26.049Z,1015.50
2019-01-02T08:22:26.031Z,1015.56
2019-01-02T08:23:26.019Z,1015.54
2019-01-02T08:24:26.008Z,1015.65
2019-01-02T08:25:26.004Z,1015.59
2019-01-02T08:26:25.995Z,1015.73
2019-01-02T08:27:25.975Z,1015.63
2019-01-02T08:28:25.967Z,1015.67
2019-01-02T08:29:25.960Z,1015.67
2019-01-02T08:30:25.983Z,1015.71
2019-01-02T08:31:25.938Z,1015.69
2019-01-02T08:32:25.932Z,1015.73
2019-01-02T08:33:25.918Z,1015.69
2019-01-02T08:34:25.902Z,1015.71
2019-01-02T08:35:25.891Z,1015.77
2019-01-02T08:36:25.901Z,1015.80
2019-01-02T08:37:25.871Z,1015.86
2019-01-02T08:38:25.859Z,1015.90
2019-01-02T08:39:25.848Z,1015.83
2019-01-02T08:40:25.843Z,1015.88
2019-01-02T08:41:25.860Z,1015.89
2019-01-02T08:42:25.822Z,1015.89
2019-01-02T08:43:25.805Z,1015.95
2019-01-02T08:44:25.795Z,1015.97
2019-01-02T08:45:25.794Z,1015.98
2019-01-02T08:46:25.777Z,1016.01
2019-01-02T08:47:25.772Z,1016.07
2019-01-02T08:48:25.761Z,1016.06
2019-01-02T08:49:25.741Z,1016.10
2019-01-02T08:50:25.739Z,1016.11
2019-01-02T08:51:25.726Z,1016.13
2019-01-02T08:52:25.724Z,1016.19
2019-01-02T08:53:25.754Z,1016.21
2019-01-02T08:54:25.688Z,1016.21
2019-01-02T08:55:25.686Z,1016.24
2019-01-02T08:56:25.678Z,1016.23
2019-01-02T08:57:25.697Z,1016.28
2019-01-02T08:58:25.646Z,1016.29
2019-01-02T08:59:25.661Z,1016.32
2019-01-02T09:00:25.630Z,1016.35
2019-01-02T09:01:25.613Z,1016.45
2019-01-02T09:02:25.607Z,1016.41
2019-01-02T09:03:25.607Z,1016.48
2019-01-02T09:04:25.587Z,1016.52
2019-01-02T09:05:25.570Z,1016.58
2019-01-02T09:06:25.565Z,1016.59
2019-01-02T09:07:25.604Z,1016.58
2019-01-02T09:08:25.577Z,1016.64
2019-01-02T09:09:25.538Z,1016.78
2019-01-02T09:10:25.523Z,1016.82
2019-01-02T09:11:25.513Z,1016.91
2019-01-02T09:12:25.501Z,1016.91
2019-01-02T09:13:25.487Z,1017.02
2019-01-02T09:14:25.490Z,1017.03
2019-01-02T09:15:25.465Z,1017.08
2019-01-02T09:16:25.455Z,1017.14
2019-01-02T09:17:25.451Z,1017.16
2019-01-02T09:18:25.440Z,1017.23
2019-01-02T09:19:25.435Z,1017.14
2019-01-02T09:20:25.415Z,1017.19
2019-01-02T09:21:25.406Z,1017.27
2019-01-02T09:22:25.391Z,1017.35
2019-01-02T09:23:25.426Z,1017.36
2019-01-02T09:24:25.374Z,1017.33
2019-01-02T09:25:25.362Z,1017.37
2019-01-02T09:26:25.352Z,1017.43
2019-01-02T09:27:25.340Z,1017.47
2019-01-02T09:28:25.332Z,1017.54
2019-01-02T09:29:25.333Z,1017.46
2019-01-02T09:30:25.311Z,1017.53
2019-01-02T09:31:25.294Z,1017.54
2019-01-02T09:32:25.293Z,1017.57
2019-01-02T09:33:25.297Z,1017.63
2019-01-02T09:34:25.267Z,1017.61
2019-01-02T09:35:25.249Z,1017.68
2019-01-02T09:36:25.239Z,1017.61
2019-01-02T09:37:25.234Z,1017.59
2019-01-02T09:38:25.228Z,1017.62
2019-01-02T09:39:25.216Z,1017.61
2019-01-02T09:40:25.205Z,1017.65
2019-01-02T09:41:25.227Z,1017.61
2019-01-02T09:42:25.182Z,1017.64
2019-01-02T09:43:25.227Z,1017.66
2019-01-02T09:44:25.165Z,1017.71
2019-01-02T09:45:25.144Z,1017.70
2019-01-02T09:46:25.181Z,1017.74
2019-01-02T09:47:25.180Z,1017.79
2019-01-02T09:48:25.110Z,1017.80
2019-01-02T09:49:25.106Z,1017.78
2019-01-02T09:50:25.091Z,1017.87
2019-01-02T09:51:25.088Z,1017.87
2019-01-02T09:52:25.100Z,1017.90
2019-01-02T09:53:25.059Z,1017.90
2019-01-02T09:54:25.046Z,1017.91
2019-01-02T09:55:25.044Z,1017.90
2019-01-02T09:56:25.025Z,1017.94
2019-01-02T09:57:25.025Z,1017.95
2019-01-02T09:58:25.013Z,1017.93
2019-01-02T09:59:24.997Z,1017.95
2019-01-02T10:00:24.988Z,1017.96
2019-01-02T10:01:24.976Z,1017.96
2019-01-02T10:02:24.972Z,1017.98
2019-01-02T10:03:24.950Z,1017.99
2019-01-02T10:04:24.942Z,1017.92
2019-01-02T10:05:24.943Z,1017.97
2019-01-02T10:06:24.924Z,1017.98
2019-01-02T10:07:24.922Z,1017.98
2019-01-02T10:08:24.938Z,1018.04
2019-01-02T10:09:24.894Z,1018.04
2019-01-02T10:10:24.877Z,1018.02
2019-01-02T10:11:24.871Z,1018.03
2019-01-02T10:12:24.861Z,1018.03
2019-01-02T10:13:24.845Z,1018.05
2019-01-02T10:14:24.856Z,1018.16
2019-01-02T10:15:24.823Z,1018.02
2019-01-02T10:16:24.821Z,1018.11
2019-01-02T10:17:24.801Z,1018.15
2019-01-02T10:18:24.794Z,1018.14
2019-01-02T10:19:24.848Z,1018.13
2019-01-02T10:20:24.771Z,1018.11
2019-01-02T10:21:24.759Z,1018.10
2019-01-02T10:22:24.747Z,1018.16
2019-01-02T10:23:24.739Z,1018.17
2019-01-02T10:24:24.737Z,1018.20
2019-01-02T10:25:24.766Z,1018.24
2019-01-02T10:26:24.716Z,1018.21
2019-01-02T10:27:24.696Z,1018.22
2019-01-02T10:28:24.684Z,1018.28
2019-01-02T10:29:24.683Z,1018.16
2019-01-02T10:30:24.661Z,1018.24
2019-01-02T10:31:24.668Z,1018.26
2019-01-02T10:32:24.646Z,1018.23
2019-01-02T10:33:24.629Z,1018.17
2019-01-02T10:34:24.625Z,1018.23
2019-01-02T10:35:24.614Z,1018.19
2019-01-02T10:36:24.607Z,1018.22
2019-01-02T10:37:24.591Z,1018.26
2019-01-02T10:38:24.582Z,1018.32
2019-01-02T10:39:24.571Z,1018.39
2019-01-02T10:40:24.556Z,1018.31
2019-01-02T10:41:24.554Z,1018.31
2019-01-02T10:42:24.544Z,1018.32
2019-01-02T10:43:24.542Z,1018.37
2019-01-02T10:44:24.517Z,1018.35
2019-01-02T10:45:24.501Z,1018.37
2019-01-02T10:46:24.501Z,1018.38
2019-01-02T10:47:24.500Z,1018.38
2019-01-02T10:48:24.473Z,1018.37
2019-01-02T10:49:24.458Z,1018.40
2019-01-02T10:50:24.454Z,1018.40
2019-01-02T10:51:24.435Z,1018.42
2019-01-02T10:52:24.565Z,1018.44
2019-01-02T10:53:24.415Z,1018.43
2019-01-02T10:54:24.422Z,1018.49
2019-01-02T10:55:24.407Z,1018.48
2019-01-02T10:56:24.388Z,1018.47
2019-01-02T10:57:24.377Z,1018.47
2019-01-02T10:58:24.369Z,1018.49
2019-01-02T10:59:24.355Z,1018.53
2019-01-02T11:00:24.355Z,1018.50
2019-01-02T11:01:24.330Z,1018.47
2019-01-02T11:02:24.345Z,1018.51
2019-01-02T11:03:24.317Z,1018.53
2019-01-02T11:04:24.303Z,1018.52
2019-01-02T11:05:24.292Z,1018.52
2019-01-02T11:06:24.278Z,1018.57
2019-01-02T11:07:24.322Z,1018.57
2019-01-02T11:08:24.255Z,1018.58
2019-01-02T11:09:24.249Z,1018.64
2019-01-02T11:10:24.238Z,1018.61
2019-01-02T11:11:24.228Z,1018.63
2019-01-02T11:12:24.210Z,1018.64
2019-01-02T11:13:24.214Z,1018.59
2019-01-02T11:14:24.208Z,1018.64
2019-01-02T11:15:24.209Z,1018.64
2019-01-02T11:16:24.182Z,1018.64
2019-01-02T11:17:24.160Z,1018.62
2019-01-02T11:18:24.148Z,1018.71
2019-01-02T11:19:24.140Z,1018.64
2019-01-02T11:20:24.138Z,1018.63
2019-01-02T11:21:24.119Z,1018.68
2019-01-02T11:22:24.119Z,1018.66
2019-01-02T11:23:24.104Z,1018.68
2019-01-02T11:24:24.087Z,1018.64
2019-01-02T11:25:24.078Z,1018.74
2019-01-02T11:26:24.074Z,1018.66
2019-01-02T11:27:24.065Z,1018.62
2019-01-02T11:28:24.048Z,1018.63
2019-01-02T11:29:24.029Z,1018.65
2019-01-02T11:30:24.016Z,1018.75
2019-01-02T11:31:24.056Z,1018.64
2019-01-02T11:32:24.000Z,1018.68
2019-01-02T11:33:23.987Z,1018.74
2019-01-02T11:34:23.972Z,1018.75
2019-01-02T11:35:23.967Z,1018.73
2019-01-02T11:36:23.951Z,1018.78
2019-01-02T11:37:23.979Z,1018.76
2019-01-02T11:38:23.935Z,1018.78
2019-01-02T11:39:23.924Z,1018.79
2019-01-02T11:40:23.916Z,1018.77
2019-01-02T11:41:23.929Z,1018.81
2019-01-02T11:42:23.889Z,1018.87
2019-01-02T11:43:23.889Z,1018.86
2019-01-02T11:44:23.866Z,1018.79
2019-01-02T11:45:24.587Z,1018.85
2019-01-02T11:46:23.862Z,1018.81
2019-01-02T11:47:23.839Z,1018.85
2019-01-02T11:48:23.849Z,1018.86
2019-01-02T11:49:23.813Z,1018.93
2019-01-02T11:50:23.812Z,1018.82
2019-01-02T11:51:23.791Z,1018.85
2019-01-02T11:52:23.789Z,1018.93
2019-01-02T11:53:23.783Z,1018.88
2019-01-02T11:54:23.758Z,1018.92
2019-01-02T11:55:23.749Z,1018.92
2019-01-02T11:56:23.742Z,1018.98
2019-01-02T11:57:23.725Z,1018.86
2019-01-02T11:58:23.728Z,1018.96
2019-01-02T11:59:23.714Z,1018.93
2019-01-02T12:00:23.699Z,1018.90
2019-01-02T12:01:23.689Z,1019.02
2019-01-02T12:02:23.673Z,1018.93
2019-01-02T12:03:23.661Z,1019.01
2019-01-02T12:04:23.669Z,1018.94
2019-01-02T12:05:23.643Z,1019.03